Congonhas Airport
SBSP : now visible

Airfield :











YOU CAN JOIN US ON...

 
LOGIN :

Register | Disclaimer

   EN    FR    IT 

 









Legend :    VFR   Marginal VFR   IFR   Intensive IFR   Very Intensive IFR
Visi :
Ceiling :
>= 8 km
>= 3000ft
5 to 8 km
1000 to 3000 ft
1500m to 5 km
500 to 1000 ft
800 to 1500m
200 to 500 ft
< 800m
< 200 ft
Symbols :   Thunderstorms  Fog  Heavy snow  Heavy precipitations  Wind > 20 kt






- Airport Elevation : 2631 ft
- IATA code : CGH


SBSP - Congonhas

CURRENT METAR :
  • 071000Z 19005KT 9999 BKN043 BKN047 20/17 Q1018

EXPIRED METARs :
  • 070900Z 18006KT 9999 BKN043 SCT050 19/17 Q1017
  • 070800Z AUTO VRB05KT CAVOK 20/17 Q1016

TAF TAF SBSP
Valid from the 07 at 06:00 until the 07 at 18:00 UTC


070200Z 0706/0718 20010KT 8000 SCT008 BKN023 TX23/0714Z TN19/0717Z
PROB40 0706/0709 22015KT 4000 TSRA BR BKN007 FEW040CB
PROB30 0709/0712 4000 RA BR BKN007
BECMG 0713/0715 6000 RA BKN015 RMK PGE



MET'MAP, your aeronautical weather chart ! - Copyright ORBIFLY December 2007 - Disclaimer

ORBIFLY MET'MAP TEAM :

Programming & Development : Alexandra Zaïnal
Concept & original design : Baudouin d'Aumeries
Assistance for programming : Marc-Olivier Méhu
Technical & hardware support : Manuel Goepfert

Contact : metmap@orbifly.com




SOURCES & CREDITS :

   NOAA       Earth
Advisory